Time;durP1;ratioP1;P1;durP2;ratioP2;P2;SDS_P1;SDS_P2;PMS_P1;PMS_P2;Temp;Humidity;BMP_temperature;BMP_pressure;BME280_temperature;BME280_humidity;BME280_pressure;Samples;Min_cycle;Max_cycle;Signal;HPM_P1;HPM_P2
2022/07/18 00:01:35;;;;;;;8.23;5.03;;;18.10;99.90;;;;;;20992067;28;20036;-58
2022/07/18 00:11:37;;;;;;;10.23;5.13;;;18.30;99.90;;;;;;20968277;28;20040;-58
2022/07/18 00:21:40;;;;;;;6.60;5.90;;;18.40;99.90;;;;;;20967581;28;20049;-58
2022/07/18 00:31:42;;;;;;;6.53;5.60;;;18.50;99.90;;;;;;20967230;28;20055;-58
2022/07/18 00:41:49;;;;;;;5.95;5.22;;;18.60;99.90;;;;;;20967560;28;20094;-58
2022/07/18 00:51:52;;;;;;;6.72;5.13;;;18.40;99.90;;;;;;21040673;28;20040;-58
2022/07/18 01:01:54;;;;;;;6.80;6.18;;;18.10;99.90;;;;;;21049571;28;20173;-56
2022/07/18 01:11:56;;;;;;;6.75;5.93;;;17.80;99.90;;;;;;21065113;28;20097;-58
2022/07/18 01:21:59;;;;;;;5.90;5.30;;;17.60;99.90;;;;;;21058395;28;20032;-58
2022/07/18 01:32:06;;;;;;;6.07;5.55;;;17.50;99.90;;;;;;20979956;28;20044;-58
2022/07/18 01:42:10;;;;;;;8.07;5.95;;;17.70;99.90;;;;;;20979358;28;20037;-58
2022/07/18 01:52:12;;;;;;;7.57;6.18;;;17.60;99.90;;;;;;20995600;28;20029;-58
2022/07/18 02:02:15;;;;;;;7.25;5.72;;;17.70;99.90;;;;;;20980402;28;20040;-56
2022/07/18 02:12:18;;;;;;;6.60;6.00;;;17.80;99.90;;;;;;20977111;28;20562;-58
2022/07/18 02:22:21;;;;;;;5.88;5.18;;;17.90;99.90;;;;;;20975706;28;20481;-58
2022/07/18 02:32:23;;;;;;;6.30;5.68;;;17.90;99.90;;;;;;20975767;28;20033;-57
2022/07/18 02:42:26;;;;;;;6.82;6.05;;;17.80;99.90;;;;;;20974921;28;20058;-58
2022/07/18 02:52:28;;;;;;;6.75;5.97;;;17.80;99.90;;;;;;20973441;28;20029;-58
2022/07/18 03:02:30;;;;;;;7.00;6.30;;;17.60;99.90;;;;;;20973272;28;20032;-58
2022/07/18 03:12:32;;;;;;;6.88;6.18;;;17.30;99.90;;;;;;20972337;28;20040;-58
2022/07/18 03:22:35;;;;;;;6.97;6.30;;;17.20;99.90;;;;;;20983115;28;20036;-58
2022/07/18 03:32:38;;;;;;;7.93;6.78;;;17.20;99.90;;;;;;21053083;28;20077;-58
2022/07/18 03:42:40;;;;;;;10.55;6.72;;;17.10;99.90;;;;;;21053114;28;20032;-58
2022/07/18 03:52:43;;;;;;;7.97;7.18;;;17.00;99.90;;;;;;21052087;28;20054;-56
2022/07/18 04:02:47;;;;;;;9.77;8.82;;;16.70;99.90;;;;;;20974323;28;20085;-58
2022/07/18 04:12:54;;;;;;;9.20;8.15;;;16.20;99.90;;;;;;20967557;28;20036;-57
2022/07/18 04:22:59;;;;;;;10.63;8.55;;;15.70;99.90;;;;;;20968968;28;20033;-58
2022/07/18 04:33:04;;;;;;;11.40;8.77;;;15.70;99.90;;;;;;20967043;28;20070;-58
2022/07/18 04:43:07;;;;;;;9.88;8.88;;;15.80;99.90;;;;;;20979871;28;20048;-58
2022/07/18 04:53:10;;;;;;;10.38;9.02;;;16.30;99.90;;;;;;21062238;28;20422;-56
2022/07/18 05:03:14;;;;;;;10.63;8.43;;;17.00;99.90;;;;;;21066391;28;20086;-58
2022/07/18 05:13:16;;;;;;;11.60;8.23;;;17.50;99.90;;;;;;21065035;28;20101;-58
2022/07/18 05:23:19;;;;;;;10.70;9.60;;;18.10;99.90;;;;;;21030152;28;20059;-58
2022/07/18 05:33:22;;;;;;;11.35;9.95;;;18.30;99.90;;;;;;20996628;28;20037;-58
2022/07/18 05:43:24;;;;;;;10.48;8.80;;;18.70;99.90;;;;;;20979330;28;20482;-56
2022/07/18 05:53:27;;;;;;;12.38;10.02;;;19.40;99.90;;;;;;20977500;28;20070;-58
2022/07/18 06:03:29;;;;;;;10.60;8.98;;;20.50;99.90;;;;;;20980454;28;20040;-58
2022/07/18 06:13:33;;;;;;;11.30;10.10;;;21.10;99.90;;;;;;20976724;28;20102;-58
2022/07/18 06:23:36;;;;;;;13.45;10.15;;;20.80;99.90;;;;;;20976225;28;20037;-59
2022/07/18 06:33:40;;;;;;;10.45;9.20;;;22.00;98.60;;;;;;20975464;28;20032;-58
2022/07/18 06:43:42;;;;;;;10.68;9.68;;;24.90;93.40;;;;;;20996853;28;20036;-59
2022/07/18 06:53:44;;;;;;;10.43;9.38;;;26.70;89.10;;;;;;21057249;28;20392;-59
2022/07/18 07:03:47;;;;;;;10.00;6.50;;;28.60;82.50;;;;;;21056482;28;20042;-59
2022/07/18 07:13:50;;;;;;;8.88;7.30;;;27.30;85.90;;;;;;21055536;28;20489;-59
2022/07/18 07:23:53;;;;;;;9.05;7.82;;;29.20;80.80;;;;;;21031592;28;20109;-60
2022/07/18 07:33:56;;;;;;;7.22;6.55;;;30.30;78.30;;;;;;20987041;28;20094;-60
2022/07/18 07:43:58;;;;;;;8.10;7.30;;;30.10;80.20;;;;;;20987374;28;20028;-60
2022/07/18 07:54:02;;;;;;;13.30;7.25;;;30.50;78.30;;;;;;20952624;28;20066;-58
2022/07/18 08:04:04;;;;;;;8.07;7.38;;;30.10;78.50;;;;;;21049533;28;20096;-60
2022/07/18 08:14:07;;;;;;;9.23;8.18;;;29.70;78.50;;;;;;21050687;28;20140;-60
2022/07/18 08:24:11;;;;;;;8.38;7.57;;;29.70;78.90;;;;;;21067805;28;20039;-61
2022/07/18 08:34:13;;;;;;;10.07;8.52;;;30.40;79.30;;;;;;21050482;28;20112;-60
2022/07/18 08:44:17;;;;;;;7.70;7.00;;;30.20;78.80;;;;;;21039735;28;20033;-60
2022/07/18 08:54:19;;;;;;;10.23;8.60;;;30.10;79.60;;;;;;20967581;28;20094;-59
2022/07/18 09:04:39;;;;;;;16.15;9.20;;;29.30;80.90;;;;;;20965870;28;20063;-60
2022/07/18 09:14:45;;;;;;;9.38;7.97;;;29.10;82.10;;;;;;20948833;28;20045;-61
2022/07/18 09:24:57;;;;;;;12.07;8.63;;;29.70;80.40;;;;;;20998966;28;20032;-60
2022/07/18 09:35:15;;;;;;;10.63;8.20;;;29.00;79.60;;;;;;21063111;28;20032;-59
2022/07/18 09:45:27;;;;;;;9.50;7.60;;;27.30;79.80;;;;;;21062521;28;20094;-60
2022/07/18 09:55:29;;;;;;;7.88;7.07;;;27.60;82.00;;;;;;21052792;28;20040;-61
2022/07/18 10:05:37;;;;;;;12.23;6.45;;;29.50;78.20;;;;;;20977467;28;20036;-61
2022/07/18 10:15:41;;;;;;;8.98;7.32;;;30.30;74.30;;;;;;20976492;28;20045;-61
2022/07/18 10:26:04;;;;;;;8.47;7.53;;;30.50;72.20;;;;;;20975730;28;20040;-61
2022/07/18 10:36:14;;;;;;;9.02;7.43;;;30.70;72.90;;;;;;20975744;28;20033;-60
2022/07/18 10:46:16;;;;;;;12.23;7.82;;;30.90;72.60;;;;;;20979508;28;20069;-61
2022/07/18 10:56:39;;;;;;;8.25;7.45;;;30.60;69.40;;;;;;21057678;28;20035;-61
2022/07/18 11:06:56;;;;;;;7.85;6.85;;;30.60;70.40;;;;;;21047594;28;20035;-60
2022/07/18 11:17:07;;;;;;;10.32;7.25;;;30.50;69.70;;;;;;21055291;28;20097;-61
2022/07/18 11:27:10;;;;;;;9.68;7.88;;;30.90;69.60;;;;;;21004121;28;20085;-61
2022/07/18 11:37:13;;;;;;;9.75;7.72;;;31.30;69.10;;;;;;20969583;28;20351;-61
2022/07/18 11:47:16;;;;;;;9.43;7.57;;;30.70;69.50;;;;;;20968309;28;20058;-60
2022/07/18 11:57:29;;;;;;;10.35;7.45;;;30.80;68.50;;;;;;20992921;28;20084;-58
2022/07/18 12:07:31;;;;;;;8.75;7.82;;;31.20;69.50;;;;;;21052468;28;20040;-61
2022/07/18 12:17:45;;;;;;;9.40;8.25;;;30.80;67.80;;;;;;21051385;28;20055;-61
2022/07/18 12:27:48;;;;;;;12.20;7.20;;;30.70;68.60;;;;;;21051140;28;20553;-61
2022/07/18 12:37:55;;;;;;;9.15;7.90;;;31.00;69.00;;;;;;21050315;28;20442;-61
2022/07/18 12:47:58;;;;;;;8.55;7.65;;;31.10;69.00;;;;;;21008425;28;20177;-57
2022/07/18 12:58:01;;;;;;;10.07;7.72;;;30.60;68.20;;;;;;20968735;28;20058;-61
2022/07/18 13:08:07;;;;;;;13.00;8.20;;;30.70;69.90;;;;;;20982830;28;20059;-61
2022/07/18 13:18:09;;;;;;;9.23;8.30;;;31.00;69.30;;;;;;20980898;28;20052;-61
2022/07/18 13:28:13;;;;;;;9.38;7.57;;;31.10;67.50;;;;;;21056140;28;20028;-61
2022/07/18 13:38:16;;;;;;;9.85;8.32;;;31.10;69.20;;;;;;21062885;28;20545;-61
2022/07/18 13:48:19;;;;;;;9.35;7.40;;;31.10;67.50;;;;;;21063169;28;20036;-61
2022/07/18 13:58:22;;;;;;;11.50;7.75;;;31.10;69.10;;;;;;21028788;28;20482;-61
2022/07/18 14:08:24;;;;;;;9.48;8.52;;;31.40;68.60;;;;;;20977407;28;20037;-62
2022/07/18 14:18:27;;;;;;;10.52;8.30;;;31.90;67.40;;;;;;20976606;28;20181;-61
2022/07/18 14:28:30;;;;;;;8.82;7.93;;;32.20;66.60;;;;;;20976103;28;20044;-62
2022/07/18 14:38:32;;;;;;;9.80;8.43;;;32.10;68.10;;;;;;20974993;28;20032;-62
2022/07/18 14:48:35;;;;;;;8.80;7.32;;;31.70;67.50;;;;;;21015417;28;20085;-61
2022/07/18 14:58:37;;;;;;;9.65;7.82;;;31.80;68.80;;;;;;21057187;28;20032;-61
2022/07/18 15:08:39;;;;;;;10.38;7.72;;;31.80;67.50;;;;;;21056408;28;20125;-61
2022/07/18 15:18:44;;;;;;;8.18;7.38;;;32.30;67.10;;;;;;21055709;28;20040;-62
2022/07/18 15:28:46;;;;;;;8.25;7.55;;;32.60;66.40;;;;;;20990139;28;20558;-61
2022/07/18 15:38:49;;;;;;;9.27;8.38;;;32.70;66.30;;;;;;20970186;28;20040;-61
2022/07/18 15:48:52;;;;;;;9.73;8.18;;;32.50;66.70;;;;;;20969467;28;20071;-62
2022/07/18 15:58:56;;;;;;;8.87;8.00;;;32.00;65.90;;;;;;20990420;28;20032;-60
2022/07/18 16:08:59;;;;;;;12.82;8.55;;;31.00;67.40;;;;;;21036532;28;20542;-60
2022/07/18 16:19:02;;;;;;;8.20;6.97;;;29.50;69.60;;;;;;21050953;28;20052;-60
2022/07/18 16:29:04;;;;;;;8.05;7.07;;;27.80;73.60;;;;;;21049735;28;20032;-59
2022/07/18 16:39:07;;;;;;;11.85;7.45;;;26.00;77.70;;;;;;21049443;28;20115;-57
2022/07/18 16:49:09;;;;;;;7.10;6.40;;;25.70;79.30;;;;;;20998508;28;20546;-61
2022/07/18 16:59:12;;;;;;;9.18;6.40;;;25.00;82.30;;;;;;20966167;28;20029;-60
2022/07/18 17:09:15;;;;;;;8.60;7.13;;;24.10;83.70;;;;;;20965315;28;20094;-57
2022/07/18 17:19:18;;;;;;;10.32;8.15;;;23.40;86.10;;;;;;20964769;28;20461;-59
2022/07/18 17:29:21;;;;;;;18.58;8.57;;;22.90;88.50;;;;;;21033119;28;20028;-59
2022/07/18 17:39:24;;;;;;;10.27;8.30;;;22.50;90.20;;;;;;21047660;28;20032;-58
2022/07/18 17:49:27;;;;;;;13.68;8.75;;;22.00;91.30;;;;;;21056271;28;20036;-58
2022/07/18 17:59:29;;;;;;;8.27;7.47;;;21.50;91.90;;;;;;21002578;28;20098;-58
2022/07/18 18:09:33;;;;;;;10.65;8.07;;;21.20;92.70;;;;;;20977139;28;20036;-59
2022/07/18 18:19:37;;;;;;;10.15;7.75;;;20.90;92.80;;;;;;20977293;28;20098;-58
2022/07/18 18:29:41;;;;;;;12.18;8.35;;;20.30;94.30;;;;;;20959640;28;20036;-58
2022/07/18 18:39:45;;;;;;;11.70;8.52;;;20.10;94.80;;;;;;20975648;28;20094;-58
2022/07/18 18:49:48;;;;;;;7.95;7.22;;;19.80;95.60;;;;;;21031451;28;20471;-60
2022/07/18 18:59:50;;;;;;;18.55;12.65;;;19.30;96.30;;;;;;21056873;28;20048;-60
2022/07/18 19:09:53;;;;;;;12.57;7.93;;;18.90;97.10;;;;;;21054993;28;20040;-61
2022/07/18 19:19:55;;;;;;;7.70;6.78;;;18.60;98.20;;;;;;21054830;28;20032;-61
2022/07/18 19:29:57;;;;;;;12.48;8.85;;;18.30;98.80;;;;;;20980727;28;20427;-58
2022/07/18 19:40:02;;;;;;;10.18;8.43;;;17.80;99.90;;;;;;20969840;28;20097;-57
2022/07/18 19:50:07;;;;;;;9.23;6.80;;;17.70;99.90;;;;;;20952991;28;20032;-58
2022/07/18 20:00:10;;;;;;;10.10;7.53;;;17.40;99.90;;;;;;21016763;28;20027;-58
2022/07/18 20:10:15;;;;;;;8.43;7.30;;;17.30;99.90;;;;;;21052063;28;20040;-58
2022/07/18 20:20:18;;;;;;;9.95;6.65;;;17.10;99.90;;;;;;21051058;28;20040;-58
2022/07/18 20:30:21;;;;;;;8.60;6.85;;;17.20;99.90;;;;;;21017601;28;20476;-58
2022/07/18 20:40:25;;;;;;;9.00;6.57;;;17.20;99.90;;;;;;21050413;28;20089;-58
2022/07/18 20:50:28;;;;;;;10.18;6.57;;;17.30;99.90;;;;;;20987636;28;20036;-60
2022/07/18 21:00:31;;;;;;;8.48;6.53;;;17.40;99.90;;;;;;20965969;28;20032;-60
2022/07/18 21:10:33;;;;;;;8.80;7.15;;;17.20;99.90;;;;;;20950185;28;20040;-61
2022/07/18 21:20:36;;;;;;;6.95;6.25;;;17.00;99.90;;;;;;20969943;28;20025;-60
2022/07/18 21:30:39;;;;;;;9.35;6.70;;;17.10;99.90;;;;;;21061100;28;20036;-61
2022/07/18 21:40:42;;;;;;;10.90;7.10;;;17.10;99.90;;;;;;21064130;28;20481;-58
2022/07/18 21:50:45;;;;;;;8.88;6.80;;;16.90;99.90;;;;;;21063065;28;20036;-58
2022/07/18 22:00:48;;;;;;;8.45;7.22;;;16.80;99.90;;;;;;21008355;28;20037;-58
2022/07/18 22:10:51;;;;;;;8.13;6.10;;;16.90;99.90;;;;;;20978086;28;20040;-54
2022/07/18 22:20:53;;;;;;;9.43;7.43;;;16.90;99.90;;;;;;20976867;28;20474;-56
2022/07/18 22:30:56;;;;;;;9.13;7.65;;;16.90;99.90;;;;;;20975568;28;20062;-58
2022/07/18 22:40:59;;;;;;;9.25;8.23;;;16.80;99.90;;;;;;20975554;28;20200;-58
2022/07/18 22:51:01;;;;;;;9.98;8.88;;;16.70;99.90;;;;;;21035682;28;20537;-58
2022/07/18 23:01:04;;;;;;;11.50;9.60;;;16.70;99.90;;;;;;21059077;28;20629;-58
2022/07/18 23:11:06;;;;;;;13.10;9.80;;;16.80;99.90;;;;;;21056071;28;20125;-58
2022/07/18 23:21:08;;;;;;;10.40;8.90;;;17.00;99.90;;;;;;21055886;28;20133;-57
2022/07/18 23:31:11;;;;;;;9.73;8.45;;;17.10;99.90;;;;;;20889623;28;20063;-58
2022/07/18 23:41:14;;;;;;;11.48;8.95;;;16.80;99.90;;;;;;20888044;28;20036;-58
2022/07/18 23:51:16;;;;;;;10.95;9.25;;;16.50;99.90;;;;;;20887420;28;20367;-56
